createdAt,value
2023-03-06T00:00:49.199Z,20.83
2023-03-06T00:03:15.502Z,21.23
2023-03-06T00:05:41.829Z,20.83
2023-03-06T00:08:08.141Z,20.05
2023-03-06T00:10:34.429Z,20.31
2023-03-06T00:13:00.752Z,21.05
2023-03-06T00:15:28.240Z,20.40
2023-03-06T00:17:54.645Z,21.52
2023-03-06T00:20:20.957Z,20.95
2023-03-06T00:22:47.254Z,21.54
2023-03-06T00:25:13.545Z,20.97
2023-03-06T00:27:40.784Z,21.02
2023-03-06T00:30:07.343Z,21.11
2023-03-06T00:32:33.712Z,20.88
2023-03-06T00:35:00.068Z,20.27
2023-03-06T00:37:26.400Z,20.23
2023-03-06T00:39:52.695Z,20.19
2023-03-06T00:42:19.016Z,20.60
2023-03-06T00:44:45.307Z,21.17
2023-03-06T00:47:11.585Z,20.60
2023-03-06T00:49:37.910Z,20.92
2023-03-06T00:52:04.216Z,20.71
2023-03-06T00:54:30.510Z,20.71
2023-03-06T00:56:56.865Z,21.09
2023-03-06T00:59:23.156Z,21.63
2023-03-06T01:01:49.470Z,21.70
2023-03-06T01:04:15.814Z,21.54
2023-03-06T01:06:42.111Z,21.61
2023-03-06T01:09:08.410Z,20.93
2023-03-06T01:11:34.718Z,21.31
2023-03-06T01:14:01.006Z,21.27
2023-03-06T01:16:27.300Z,20.82
2023-03-06T01:18:53.706Z,21.49
2023-03-06T01:21:19.996Z,21.89
2023-03-06T01:23:46.284Z,21.20
2023-03-06T01:26:12.609Z,21.42
2023-03-06T01:28:38.884Z,22.06
2023-03-06T01:31:05.170Z,20.88
2023-03-06T01:33:31.482Z,21.54
2023-03-06T01:35:57.802Z,21.85
2023-03-06T01:38:24.112Z,22.05
2023-03-06T01:40:50.445Z,22.75
2023-03-06T01:43:16.736Z,22.52
2023-03-06T01:45:43.149Z,22.46
2023-03-06T01:48:09.474Z,22.28
2023-03-06T01:50:35.793Z,22.53
2023-03-06T01:53:02.099Z,22.47
2023-03-06T01:55:28.410Z,22.95
2023-03-06T01:57:54.695Z,23.94
2023-03-06T02:00:21.003Z,24.31
2023-03-06T02:02:47.362Z,24.23
2023-03-06T02:05:13.673Z,24.25
2023-03-06T02:07:39.965Z,25.56
2023-03-06T02:10:06.270Z,26.50
2023-03-06T02:12:32.551Z,28.02
2023-03-06T02:14:58.842Z,27.42
2023-03-06T02:17:25.144Z,28.11
2023-03-06T02:19:51.438Z,28.14
2023-03-06T02:22:17.741Z,27.66
2023-03-06T02:24:44.084Z,27.45
2023-03-06T02:27:10.390Z,27.83
2023-03-06T02:29:42.810Z,27.95
2023-03-06T02:32:09.162Z,28.32
2023-03-06T02:34:35.469Z,28.08
2023-03-06T02:37:01.751Z,28.34
2023-03-06T02:39:28.062Z,28.67
2023-03-06T02:41:54.365Z,28.20
2023-03-06T02:44:20.661Z,28.50
2023-03-06T02:46:46.975Z,28.73
2023-03-06T02:49:13.261Z,29.13
2023-03-06T02:51:39.555Z,28.91
2023-03-06T02:54:05.895Z,27.79
2023-03-06T02:56:32.194Z,27.72
2023-03-06T02:58:58.491Z,28.20
2023-03-06T03:01:24.836Z,27.45
2023-03-06T03:03:51.198Z,27.57
2023-03-06T03:06:17.499Z,27.22
2023-03-06T03:08:43.833Z,27.42
2023-03-06T03:11:10.121Z,27.61
2023-03-06T03:13:36.419Z,28.50
2023-03-06T03:16:02.790Z,28.64
2023-03-06T03:18:29.096Z,28.85
2023-03-06T03:20:55.399Z,28.99
2023-03-06T03:23:21.712Z,29.49
2023-03-06T03:25:48.000Z,29.71
2023-03-06T03:28:14.289Z,30.29
2023-03-06T03:30:40.596Z,29.41
2023-03-06T03:33:06.888Z,28.94
2023-03-06T03:35:33.223Z,27.94
2023-03-06T03:37:59.551Z,28.13
2023-03-06T03:40:25.854Z,27.36
2023-03-06T03:42:52.164Z,26.60
2023-03-06T03:45:18.490Z,26.69
2023-03-06T03:47:44.780Z,26.98
2023-03-06T03:50:11.056Z,26.30
2023-03-06T03:52:37.372Z,26.43
2023-03-06T03:55:03.662Z,25.72
2023-03-06T03:57:29.956Z,25.30
2023-03-06T03:59:56.272Z,24.89
2023-03-06T04:02:22.642Z,25.81
2023-03-06T04:04:49.017Z,26.38
2023-03-06T04:07:15.350Z,26.31
2023-03-06T04:09:41.644Z,26.52
2023-03-06T04:12:07.940Z,25.23
2023-03-06T04:14:34.314Z,24.52
2023-03-06T04:17:00.604Z,24.32
2023-03-06T04:19:26.907Z,24.51
2023-03-06T04:21:53.218Z,25.16
2023-03-06T04:24:19.520Z,26.62
2023-03-06T04:26:45.826Z,27.47
2023-03-06T04:29:12.157Z,26.93
2023-03-06T04:31:38.516Z,27.63
2023-03-06T04:34:04.845Z,26.91
2023-03-06T04:36:31.152Z,26.85
2023-03-06T04:38:57.579Z,26.84
2023-03-06T04:41:23.927Z,27.02
2023-03-06T04:43:50.439Z,27.20
2023-03-06T04:46:16.731Z,25.96
2023-03-06T04:48:43.014Z,26.89
2023-03-06T04:51:09.325Z,26.61
2023-03-06T04:53:35.607Z,26.00
2023-03-06T04:56:01.900Z,25.90
2023-03-06T04:58:28.204Z,25.24
2023-03-06T05:00:54.602Z,25.13
2023-03-06T05:03:20.908Z,25.27
2023-03-06T05:05:47.216Z,24.87
2023-03-06T05:08:13.512Z,26.01
2023-03-06T05:10:39.807Z,26.69
2023-03-06T05:13:06.140Z,25.98
2023-03-06T05:15:32.439Z,26.25
2023-03-06T05:17:58.731Z,26.90
2023-03-06T05:20:25.068Z,26.91
2023-03-06T05:22:51.360Z,26.77
2023-03-06T05:25:17.646Z,27.02
2023-03-06T05:27:43.944Z,27.63
2023-03-06T05:30:10.239Z,28.41
2023-03-06T05:32:36.613Z,28.92
2023-03-06T05:35:02.943Z,29.31
2023-03-06T05:37:30.687Z,29.73
2023-03-06T05:39:57.162Z,29.52
2023-03-06T05:42:23.469Z,28.98
2023-03-06T05:44:49.773Z,29.28
2023-03-06T05:47:16.074Z,29.93
2023-03-06T05:49:42.386Z,29.53
2023-03-06T05:52:08.680Z,29.23
2023-03-06T05:54:34.989Z,28.40
2023-03-06T05:57:01.313Z,27.54
2023-03-06T05:59:27.611Z,28.15
2023-03-06T06:01:53.890Z,28.17
2023-03-06T06:04:20.203Z,28.26
2023-03-06T06:06:46.485Z,28.24
2023-03-06T06:09:13.950Z,28.10
2023-03-06T06:11:40.344Z,28.46
2023-03-06T06:14:06.637Z,28.84
2023-03-06T06:16:32.926Z,28.77
2023-03-06T06:18:59.254Z,28.17
2023-03-06T06:21:25.571Z,29.27
2023-03-06T06:23:51.862Z,27.99
2023-03-06T06:26:18.209Z,28.77
2023-03-06T06:28:44.499Z,28.43
2023-03-06T06:31:10.861Z,29.62
2023-03-06T06:33:37.202Z,30.57
2023-03-06T06:36:03.500Z,31.12
2023-03-06T06:38:29.778Z,32.06
2023-03-06T06:41:30.634Z,32.85
2023-03-06T06:43:42.339Z,31.64
2023-03-06T06:46:32.346Z,31.10
2023-03-06T06:48:54.913Z,31.93
2023-03-06T06:51:21.212Z,31.06
2023-03-06T06:53:47.491Z,32.37
2023-03-06T06:56:13.995Z,32.04
2023-03-06T06:58:40.338Z,30.47
2023-03-06T07:01:06.650Z,29.81
2023-03-06T07:03:33.042Z,29.48
2023-03-06T07:05:59.389Z,30.10
2023-03-06T07:08:25.688Z,29.49
2023-03-06T07:10:51.971Z,30.58
2023-03-06T07:13:18.271Z,30.61
2023-03-06T07:15:44.625Z,30.70
2023-03-06T07:18:10.954Z,29.65
2023-03-06T07:20:37.267Z,29.93
2023-03-06T07:23:03.560Z,29.77
2023-03-06T07:25:29.840Z,29.99
2023-03-06T07:27:56.230Z,30.12
2023-03-06T07:30:22.589Z,30.49
2023-03-06T07:32:48.894Z,30.67
2023-03-06T07:35:20.064Z,31.07
2023-03-06T07:37:47.067Z,31.69
2023-03-06T07:40:13.364Z,30.64
2023-03-06T07:42:40.780Z,30.38
2023-03-06T07:45:07.070Z,30.42
2023-03-06T07:47:33.358Z,30.97
2023-03-06T07:49:59.682Z,30.16
2023-03-06T07:52:25.979Z,30.93
2023-03-06T07:54:52.270Z,30.30
2023-03-06T07:57:18.583Z,30.56
2023-03-06T07:59:44.872Z,31.04
2023-03-06T08:02:11.188Z,30.85
2023-03-06T08:04:37.524Z,31.04
2023-03-06T08:07:03.834Z,30.75
2023-03-06T08:09:30.121Z,30.82
2023-03-06T08:11:56.498Z,31.17
2023-03-06T08:14:22.790Z,31.40
2023-03-06T08:16:49.073Z,30.41
2023-03-06T08:19:15.388Z,30.44
2023-03-06T08:21:41.685Z,30.15
2023-03-06T08:24:08.628Z,30.01
2023-03-06T08:26:35.027Z,30.26
2023-03-06T08:29:01.321Z,31.07
2023-03-06T08:31:27.709Z,32.08
2023-03-06T08:33:54.090Z,31.92
2023-03-06T08:36:20.391Z,33.42
2023-03-06T08:38:46.778Z,33.42
2023-03-06T08:41:13.097Z,33.49
2023-03-06T08:43:39.384Z,33.14
2023-03-06T08:46:05.725Z,33.26
2023-03-06T08:48:32.116Z,33.02
2023-03-06T08:50:58.441Z,33.85
2023-03-06T08:53:40.362Z,34.60
2023-03-06T08:56:08.224Z,34.33
2023-03-06T08:58:34.521Z,33.47
2023-03-06T09:01:00.970Z,33.80
2023-03-06T09:03:27.314Z,35.61
2023-03-06T09:05:53.614Z,34.47
2023-03-06T09:08:19.914Z,33.58
2023-03-06T09:10:46.249Z,34.00
2023-03-06T09:13:12.544Z,33.91
2023-03-06T09:15:38.838Z,34.92
2023-03-06T09:18:05.187Z,34.07
2023-03-06T09:20:31.508Z,33.16
2023-03-06T09:22:57.803Z,33.17
2023-03-06T09:25:24.114Z,33.03
2023-03-06T09:28:01.788Z,33.00
2023-03-06T09:30:31.699Z,32.72
2023-03-06T09:32:58.004Z,32.85
2023-03-06T09:35:24.350Z,32.62
2023-03-06T09:37:50.740Z,31.94
2023-03-06T09:40:17.043Z,32.69
2023-03-06T09:42:43.339Z,31.61
2023-03-06T09:45:09.643Z,32.10
2023-03-06T09:47:35.950Z,32.40
2023-03-06T09:50:02.248Z,31.99
2023-03-06T09:52:28.568Z,32.48
2023-03-06T09:54:54.860Z,32.18
2023-03-06T09:57:21.156Z,31.50
2023-03-06T09:59:47.458Z,30.60
2023-03-06T10:02:13.812Z,31.00
2023-03-06T10:04:40.193Z,31.20
2023-03-06T10:07:06.518Z,30.41
2023-03-06T10:09:32.805Z,30.15
2023-03-06T10:11:59.106Z,30.87
2023-03-06T10:14:25.442Z,30.32
2023-03-06T10:16:51.745Z,29.76
2023-03-06T10:19:18.043Z,29.81
2023-03-06T10:21:44.401Z,30.66
2023-03-06T10:24:10.708Z,31.45
2023-03-06T10:26:37.076Z,32.47
2023-03-06T10:29:03.440Z,31.88
2023-03-06T10:31:29.773Z,30.80
2023-03-06T10:33:56.094Z,31.12
2023-03-06T10:36:22.400Z,30.78
2023-03-06T10:38:48.850Z,29.62
2023-03-06T10:41:15.223Z,31.03
2023-03-06T10:43:41.563Z,30.85
2023-03-06T10:46:07.941Z,30.07
2023-03-06T10:48:34.454Z,27.75
2023-03-06T10:51:04.739Z,28.67
2023-03-06T10:53:36.012Z,28.09
2023-03-06T10:56:02.309Z,27.50
2023-03-06T10:58:29.003Z,28.09
2023-03-06T11:00:55.289Z,27.57
2023-03-06T11:03:21.597Z,26.21
2023-03-06T11:05:47.886Z,24.78
2023-03-06T11:08:14.683Z,24.67
2023-03-06T11:10:41.170Z,24.82
2023-03-06T11:13:07.496Z,24.28
2023-03-06T11:15:33.788Z,23.92
2023-03-06T11:18:00.120Z,23.60
2023-03-06T11:20:26.438Z,21.68
2023-03-06T11:22:52.727Z,23.17
2023-03-06T11:25:19.031Z,23.68
2023-03-06T11:27:45.326Z,25.04
2023-03-06T11:30:11.613Z,22.64
2023-03-06T11:32:37.972Z,22.49
2023-03-06T11:35:04.291Z,21.35
2023-03-06T11:37:30.587Z,20.16
2023-03-06T11:39:56.909Z,20.62
2023-03-06T11:42:23.197Z,20.29
2023-03-06T11:44:49.494Z,19.63
2023-03-06T11:47:15.846Z,19.46
2023-03-06T11:49:42.137Z,19.10
2023-03-06T11:52:08.732Z,17.63
2023-03-06T11:54:35.042Z,17.84
2023-03-06T11:57:01.324Z,18.87
2023-03-06T11:59:27.611Z,17.06
2023-03-06T12:01:53.958Z,16.70
2023-03-06T12:04:20.265Z,16.10
2023-03-06T12:06:46.550Z,16.26
2023-03-06T12:09:12.852Z,15.55
2023-03-06T12:11:39.147Z,14.25
2023-03-06T12:14:05.444Z,11.68
2023-03-06T12:16:31.795Z,10.30
2023-03-06T12:18:58.127Z,9.86
2023-03-06T12:21:24.404Z,8.70
2023-03-06T12:23:50.725Z,10.60
2023-03-06T12:26:17.039Z,10.80
2023-03-06T12:28:45.418Z,9.88
2023-03-06T12:31:12.292Z,11.69
2023-03-06T12:33:38.638Z,12.25
2023-03-06T12:36:05.001Z,11.01
2023-03-06T12:38:31.312Z,11.15
2023-03-06T12:40:57.597Z,10.38
2023-03-06T12:43:23.878Z,9.23
2023-03-06T12:45:50.259Z,9.12
2023-03-06T12:48:16.562Z,11.26
2023-03-06T12:50:42.846Z,9.94
2023-03-06T12:53:09.204Z,9.76
2023-03-06T12:55:35.475Z,9.11
2023-03-06T12:58:01.762Z,8.59
2023-03-06T13:00:28.064Z,8.70
2023-03-06T13:02:54.403Z,8.73
2023-03-06T13:05:20.707Z,8.76
2023-03-06T13:07:47.016Z,7.95
2023-03-06T13:10:13.365Z,8.53
2023-03-06T13:12:39.694Z,9.00
2023-03-06T13:15:05.984Z,8.07
2023-03-06T13:17:32.307Z,8.18
2023-03-06T13:19:58.592Z,8.46
2023-03-06T13:22:24.884Z,8.63
2023-03-06T13:24:54.896Z,8.31
2023-03-06T13:27:21.231Z,8.68
2023-03-06T13:29:47.530Z,9.13
2023-03-06T13:32:13.890Z,8.09
2023-03-06T13:34:40.208Z,8.26
2023-03-06T13:37:06.587Z,7.98
2023-03-06T13:39:32.871Z,8.52
2023-03-06T13:41:59.170Z,8.37
2023-03-06T13:44:25.490Z,9.28
2023-03-06T13:46:51.809Z,10.59
2023-03-06T13:49:18.107Z,12.08
2023-03-06T13:51:44.408Z,11.26
2023-03-06T13:54:10.733Z,11.54
2023-03-06T13:56:37.079Z,11.74
2023-03-06T13:59:03.432Z,11.34
2023-03-06T14:01:30.044Z,12.11
2023-03-06T14:03:56.364Z,10.91
2023-03-06T14:06:22.682Z,11.10
2023-03-06T14:08:48.967Z,10.42
2023-03-06T14:11:15.266Z,10.63
2023-03-06T14:13:47.071Z,11.30
2023-03-06T14:16:14.068Z,11.21
2023-03-06T14:18:40.384Z,11.75
2023-03-06T14:21:06.697Z,11.49
2023-03-06T14:23:32.980Z,12.24
2023-03-06T14:25:59.295Z,12.52
2023-03-06T14:28:25.593Z,12.20
2023-03-06T14:30:51.950Z,12.13
2023-03-06T14:33:18.370Z,12.15
2023-03-06T14:35:44.696Z,11.04
2023-03-06T14:38:10.994Z,11.44
2023-03-06T14:40:37.289Z,11.64
2023-03-06T14:43:03.597Z,11.27
2023-03-06T14:45:29.880Z,11.83
2023-03-06T14:47:56.195Z,12.17
2023-03-06T14:50:22.511Z,12.15
2023-03-06T14:52:48.808Z,12.04
2023-03-06T14:55:15.107Z,12.26
2023-03-06T14:57:41.418Z,12.58
2023-03-06T15:00:07.705Z,12.53
2023-03-06T15:02:34.041Z,12.70
2023-03-06T15:05:00.424Z,12.18
2023-03-06T15:07:26.730Z,12.70
2023-03-06T15:09:53.011Z,12.81
2023-03-06T15:12:19.318Z,13.25
2023-03-06T15:14:45.630Z,13.42
2023-03-06T15:17:11.926Z,13.52
2023-03-06T15:19:38.232Z,13.44
2023-03-06T15:22:04.519Z,13.38
2023-03-06T15:24:30.808Z,13.26
2023-03-06T15:26:57.121Z,13.68
2023-03-06T15:29:23.411Z,12.98
2023-03-06T15:31:49.707Z,13.31
2023-03-06T15:34:16.033Z,13.37
2023-03-06T15:36:42.343Z,13.18
2023-03-06T15:39:08.631Z,12.88
2023-03-06T15:41:34.949Z,13.56
2023-03-06T15:44:01.257Z,14.78
2023-03-06T15:46:27.544Z,13.74
2023-03-06T15:48:53.855Z,13.82
2023-03-06T15:51:20.189Z,13.12
2023-03-06T15:53:46.510Z,13.18
2023-03-06T15:56:12.815Z,13.20
2023-03-06T15:58:39.111Z,12.93
2023-03-06T16:01:05.402Z,14.15
2023-03-06T16:03:31.727Z,13.66
2023-03-06T16:05:58.026Z,13.33
2023-03-06T16:08:24.549Z,13.39
2023-03-06T16:10:50.888Z,13.43
2023-03-06T16:13:17.202Z,13.48
2023-03-06T16:15:43.492Z,13.88
2023-03-06T16:18:09.810Z,14.18
2023-03-06T16:20:36.100Z,14.30
2023-03-06T16:23:02.403Z,13.85
2023-03-06T16:25:28.726Z,14.01
2023-03-06T16:27:55.039Z,13.78
2023-03-06T16:30:21.329Z,13.70
2023-03-06T16:32:47.702Z,13.46
2023-03-06T16:35:14.006Z,13.51
2023-03-06T16:37:40.305Z,13.44
2023-03-06T16:40:06.609Z,13.76
2023-03-06T16:42:32.898Z,13.68
2023-03-06T16:44:59.219Z,13.41
2023-03-06T16:47:25.604Z,14.24
2023-03-06T16:49:51.917Z,12.92
2023-03-06T16:52:18.252Z,12.90
2023-03-06T16:54:44.840Z,12.57
2023-03-06T16:57:11.183Z,12.77
2023-03-06T16:59:37.474Z,13.18
2023-03-06T17:02:03.778Z,13.10
2023-03-06T17:04:30.063Z,12.80
2023-03-06T17:06:56.350Z,12.78
2023-03-06T17:09:22.649Z,12.38
2023-03-06T17:11:48.941Z,12.48
2023-03-06T17:14:15.226Z,12.87
2023-03-06T17:16:41.556Z,13.05
2023-03-06T17:19:07.835Z,11.89
2023-03-06T17:21:34.127Z,11.95
2023-03-06T17:24:00.421Z,12.50
2023-03-06T17:26:26.705Z,12.98
2023-03-06T17:28:52.985Z,12.84
2023-03-06T17:31:19.374Z,12.86
2023-03-06T17:33:45.713Z,14.02
2023-03-06T17:36:12.003Z,13.51
2023-03-06T17:38:38.323Z,14.35
2023-03-06T17:41:04.623Z,13.40
2023-03-06T17:43:30.910Z,13.80
2023-03-06T17:45:57.225Z,14.36
2023-03-06T17:48:23.503Z,13.74
2023-03-06T17:50:49.791Z,14.29
2023-03-06T17:53:16.098Z,13.66
2023-03-06T17:55:42.390Z,13.37
2023-03-06T17:58:10.248Z,13.78
2023-03-06T18:00:37.717Z,14.22
2023-03-06T18:03:04.019Z,14.07
2023-03-06T18:05:30.298Z,14.00
2023-03-06T18:07:56.616Z,14.21
2023-03-06T18:10:22.905Z,15.04
2023-03-06T18:12:49.240Z,15.34
2023-03-06T18:15:15.549Z,14.40
2023-03-06T18:17:41.840Z,14.05
2023-03-06T18:20:08.161Z,14.02
2023-03-06T18:22:34.509Z,14.08
2023-03-06T18:25:00.797Z,13.57
2023-03-06T18:27:27.099Z,13.80
2023-03-06T18:29:53.415Z,13.84
2023-03-06T18:32:19.760Z,14.35
2023-03-06T18:34:46.084Z,14.60
2023-03-06T18:37:12.475Z,14.66
2023-03-06T18:39:38.765Z,14.82
2023-03-06T18:42:05.053Z,15.07
2023-03-06T18:44:31.365Z,14.85
2023-03-06T18:46:57.697Z,15.30
2023-03-06T18:49:23.995Z,15.46
2023-03-06T18:51:50.289Z,15.90
2023-03-06T18:54:16.799Z,14.33
2023-03-06T18:56:43.310Z,13.96
2023-03-06T18:59:09.667Z,13.84
2023-03-06T19:01:35.950Z,13.99
2023-03-06T19:04:02.317Z,13.44
2023-03-06T19:06:28.696Z,14.21
2023-03-06T19:08:54.993Z,14.18
2023-03-06T19:11:21.307Z,14.30
2023-03-06T19:13:47.641Z,15.06
2023-03-06T19:16:13.960Z,15.52
2023-03-06T19:18:40.262Z,15.24
2023-03-06T19:21:06.566Z,14.49
2023-03-06T19:23:32.859Z,15.03
2023-03-06T19:25:59.151Z,14.92
2023-03-06T19:28:25.624Z,14.85
2023-03-06T19:30:51.917Z,15.23
2023-03-06T19:33:18.206Z,15.45
2023-03-06T19:35:44.542Z,15.49
2023-03-06T19:38:10.878Z,14.42
2023-03-06T19:40:37.295Z,14.70
2023-03-06T19:43:03.618Z,15.27
2023-03-06T19:45:29.918Z,15.14
2023-03-06T19:47:56.206Z,14.81
2023-03-06T19:50:22.522Z,14.52
2023-03-06T19:52:48.811Z,14.78
2023-03-06T19:55:15.092Z,15.04
2023-03-06T19:57:41.463Z,14.52
2023-03-06T20:00:07.755Z,14.87
2023-03-06T20:02:34.048Z,14.39
2023-03-06T20:05:00.366Z,15.11
2023-03-06T20:07:26.731Z,15.09
2023-03-06T20:09:53.020Z,14.83
2023-03-06T20:12:19.328Z,15.32
2023-03-06T20:14:45.622Z,14.14
2023-03-06T20:17:11.928Z,14.57
2023-03-06T20:19:38.462Z,13.96
2023-03-06T20:22:04.754Z,14.91
2023-03-06T20:24:31.057Z,14.65
2023-03-06T20:26:57.379Z,15.05
2023-03-06T20:29:23.668Z,14.18
2023-03-06T20:31:49.969Z,14.05
2023-03-06T20:34:16.327Z,13.88
2023-03-06T20:36:42.613Z,14.10
2023-03-06T20:39:08.941Z,13.74
2023-03-06T20:41:35.363Z,14.05
2023-03-06T20:44:01.656Z,14.36
2023-03-06T20:46:28.019Z,14.74
2023-03-06T20:48:54.387Z,14.75
2023-03-06T20:51:20.703Z,14.60
2023-03-06T20:53:46.989Z,14.47
2023-03-06T20:56:13.300Z,14.69
2023-03-06T20:58:39.677Z,14.62
2023-03-06T21:01:05.975Z,14.17
2023-03-06T21:03:32.297Z,14.30
2023-03-06T21:05:58.583Z,14.61
2023-03-06T21:08:24.886Z,14.82
2023-03-06T21:10:51.193Z,14.54
2023-03-06T21:13:17.488Z,14.60
2023-03-06T21:15:43.775Z,14.29
2023-03-06T21:18:10.087Z,14.24
2023-03-06T21:20:36.373Z,14.53
2023-03-06T21:23:02.674Z,13.96
2023-03-06T21:25:29.015Z,14.04
2023-03-06T21:27:55.319Z,13.85
2023-03-06T21:30:21.623Z,14.24
2023-03-06T21:32:47.934Z,14.77
2023-03-06T21:35:14.215Z,14.54
2023-03-06T21:37:40.505Z,14.10
2023-03-06T21:40:06.853Z,14.38
2023-03-06T21:42:33.144Z,14.08
2023-03-06T21:44:59.457Z,14.29
2023-03-06T21:47:25.754Z,13.77
2023-03-06T21:49:52.040Z,14.15
2023-03-06T21:52:18.326Z,13.84
2023-03-06T21:54:44.646Z,14.21
2023-03-06T21:57:10.957Z,13.88
2023-03-06T21:59:37.244Z,13.99
2023-03-06T22:02:03.550Z,14.53
2023-03-06T22:04:29.941Z,14.92
2023-03-06T22:06:56.298Z,14.41
2023-03-06T22:09:22.609Z,13.75
2023-03-06T22:11:48.918Z,13.79
2023-03-06T22:14:15.232Z,14.00
2023-03-06T22:16:41.581Z,13.23
2023-03-06T22:19:07.886Z,13.15
2023-03-06T22:21:34.178Z,13.27
2023-03-06T22:24:00.479Z,13.62
2023-03-06T22:26:26.783Z,12.90
2023-03-06T22:28:53.099Z,13.06
2023-03-06T22:31:25.009Z,13.11
2023-03-06T22:33:51.347Z,12.87
2023-03-06T22:36:17.636Z,12.88
2023-03-06T22:38:43.953Z,13.19
2023-03-06T22:41:10.235Z,13.38
2023-03-06T22:43:36.538Z,13.50
2023-03-06T22:46:03.072Z,13.32
2023-03-06T22:48:29.397Z,13.08
2023-03-06T22:50:55.695Z,12.77
2023-03-06T22:53:22.015Z,12.89
2023-03-06T22:55:48.304Z,13.30
2023-03-06T22:58:14.620Z,12.98
2023-03-06T23:00:40.941Z,13.09
2023-03-06T23:03:08.683Z,13.45
2023-03-06T23:05:34.989Z,13.54
2023-03-06T23:08:01.313Z,13.54
2023-03-06T23:10:27.616Z,13.27
2023-03-06T23:12:53.915Z,13.09
2023-03-06T23:15:20.230Z,13.08
2023-03-06T23:17:46.523Z,12.62
2023-03-06T23:20:12.820Z,13.02
2023-03-06T23:22:39.128Z,12.71
2023-03-06T23:25:05.437Z,12.76
2023-03-06T23:27:31.730Z,12.74
2023-03-06T23:29:58.037Z,12.48
2023-03-06T23:32:24.339Z,12.16
2023-03-06T23:34:50.638Z,12.01
2023-03-06T23:37:17.043Z,12.44
2023-03-06T23:39:43.346Z,11.77
2023-03-06T23:42:09.640Z,11.88
2023-03-06T23:44:35.950Z,11.44
2023-03-06T23:47:02.244Z,11.57
2023-03-06T23:49:28.527Z,11.59
2023-03-06T23:51:54.885Z,11.24
2023-03-06T23:54:21.181Z,11.97
2023-03-06T23:56:47.487Z,11.74
2023-03-06T23:59:13.784Z,11.80
